Time;durP1;ratioP1;P1;durP2;ratioP2;P2;SDS_P1;SDS_P2;PMS_P1;PMS_P2;Temp;Humidity;BMP_temperature;BMP_pressure;BME280_temperature;BME280_humidity;BME280_pressure;Samples;Min_cycle;Max_cycle;Signal;HPM_P1;HPM_P2
2022/06/02 00:01:30;;;;;;;12.00;9.95;;;;;;;12.98;88.84;94774.23;1651011;87;20979;-57
2022/06/02 00:04:14;;;;;;;12.50;9.20;;;;;;;12.96;89.21;94769.80;1651029;87;21268;-57
2022/06/02 00:07:09;;;;;;;11.88;9.13;;;;;;;12.95;89.41;94767.48;1630180;87;20983;-57
2022/06/02 00:09:54;;;;;;;20.23;10.18;;;;;;;12.97;89.44;94774.09;1649408;86;20991;-57
2022/06/02 00:12:33;;;;;;;17.60;10.20;;;;;;;12.91;89.54;94773.75;1650906;87;21020;-57
2022/06/02 00:15:26;;;;;;;18.07;11.15;;;;;;;12.87;90.02;94777.28;1651057;87;21019;-57
2022/06/02 00:18:14;;;;;;;14.03;9.53;;;;;;;12.79;89.75;94775.45;1650356;86;21757;-58
2022/06/02 00:20:59;;;;;;;13.25;10.35;;;;;;;12.72;89.78;94777.74;1650826;86;21447;-57
2022/06/02 00:23:40;;;;;;;16.80;10.82;;;;;;;12.64;89.90;94776.49;1650959;87;21065;-58
2022/06/02 00:26:46;;;;;;;14.87;11.35;;;;;;;12.57;90.16;94775.42;1651023;87;21026;-57
2022/06/02 00:29:53;;;;;;;15.60;11.45;;;;;;;12.49;90.34;94769.28;1651008;86;20971;-57
2022/06/02 00:32:25;;;;;;;16.65;10.78;;;;;;;12.41;90.56;94767.44;1651022;87;21266;-57
2022/06/02 00:35:20;;;;;;;13.90;10.08;;;;;;;12.36;90.98;94774.95;1651060;87;21012;-57
2022/06/02 00:38:18;;;;;;;15.03;10.18;;;;;;;12.35;91.27;94766.52;1651011;87;21003;-56
2022/06/02 00:40:46;;;;;;;21.52;10.80;;;;;;;12.33;91.10;94774.48;1593092;89;21095;-57
2022/06/02 00:43:32;;;;;;;14.87;10.32;;;;;;;12.28;91.33;94766.04;1593134;89;20999;-57
2022/06/02 00:46:28;;;;;;;17.00;10.35;;;;;;;12.26;91.12;94770.63;1618222;88;21915;-57
2022/06/02 00:49:26;;;;;;;17.10;9.48;;;;;;;12.25;91.03;94771.84;1646871;85;21266;-58
2022/06/02 00:52:27;;;;;;;14.65;10.20;;;;;;;12.24;91.30;94771.70;1651169;87;21015;-59
2022/06/02 00:58:28;;;;;;;19.95;11.53;;;;;;;12.15;91.22;94770.31;1617647;88;21029;-59
2022/06/02 01:01:14;;;;;;;18.35;9.75;;;;;;;12.16;91.86;94771.06;1641200;86;21336;-57
2022/06/02 01:03:47;;;;;;;13.75;8.93;;;;;;;12.18;91.67;94767.23;1651480;86;21028;-57
2022/06/02 01:06:31;;;;;;;13.22;10.18;;;;;;;12.14;91.23;94770.16;1651841;87;20966;-57
2022/06/02 01:09:15;;;;;;;17.80;10.20;;;;;;;12.09;91.46;94770.73;1651659;87;21079;-59
2022/06/02 01:12:13;;;;;;;12.73;9.60;;;;;;;12.08;91.93;94771.20;1621381;88;20967;-57
2022/06/02 01:15:08;;;;;;;11.95;8.68;;;;;;;12.06;92.07;94766.13;1651596;87;21199;-57
2022/06/02 01:17:47;;;;;;;13.90;10.03;;;;;;;12.00;91.57;94761.67;1651318;87;21440;-57
2022/06/02 01:20:44;;;;;;;16.87;11.20;;;;;;;11.92;91.57;94765.95;1649651;85;20999;-57
2022/06/02 01:23:44;;;;;;;14.65;9.75;;;;;;;11.89;92.12;94770.38;1630697;87;20991;-60
2022/06/02 01:26:25;;;;;;;16.48;10.88;;;;;;;11.89;91.78;94771.75;1630190;87;21012;-57
2022/06/02 01:29:39;;;;;;;12.28;9.55;;;;;;;11.89;91.67;94770.38;1652141;87;21141;-58
2022/06/02 01:32:14;;;;;;;12.30;9.03;;;;;;;11.94;91.53;94774.53;1651698;87;21572;-57
2022/06/02 01:35:05;;;;;;;14.03;9.53;;;;;;;11.96;91.15;94775.62;1651762;86;21172;-57
2022/06/02 01:38:03;;;;;;;12.28;9.35;;;;;;;11.95;90.77;94774.69;1651563;86;20994;-58
2022/06/02 01:40:57;;;;;;;14.83;9.38;;;;;;;11.94;90.77;94774.53;1651515;86;21078;-57
2022/06/02 01:43:44;;;;;;;15.38;10.68;;;;;;;11.95;90.58;94769.17;1649884;86;21219;-57
2022/06/02 01:46:23;;;;;;;14.95;10.20;;;;;;;11.93;90.50;94769.61;1651488;87;20972;-58
2022/06/02 01:49:14;;;;;;;14.95;10.50;;;;;;;11.91;90.57;94765.17;1651572;87;20987;-57
2022/06/02 01:52:12;;;;;;;17.73;10.48;;;;;;;11.92;90.87;94769.45;1651549;87;21031;-57
2022/06/02 01:54:59;;;;;;;16.60;10.93;;;;;;;11.89;90.66;94775.89;1651544;87;21483;-57
2022/06/02 01:58:03;;;;;;;13.20;8.75;;;;;;;11.83;90.76;94768.66;1650986;86;21194;-57
2022/06/02 02:00:33;;;;;;;15.40;10.18;;;;;;;11.76;90.43;94773.09;1651016;87;20955;-57
2022/06/02 02:03:12;;;;;;;17.30;10.82;;;;;;;11.62;90.65;94769.50;1651230;87;21427;-58
2022/06/02 02:05:57;;;;;;;18.45;10.60;;;;;;;11.59;91.18;94770.41;1621394;88;21010;-58
2022/06/02 02:08:55;;;;;;;13.58;9.28;;;;;;;11.59;91.47;94767.06;1651098;87;21019;-57
2022/06/02 02:11:51;;;;;;;15.58;8.95;;;;;;;11.61;91.23;94763.23;1651081;87;21280;-57
2022/06/02 02:14:53;;;;;;;10.25;9.15;;;;;;;11.58;90.94;94760.02;1651184;87;21083;-57
2022/06/02 02:17:58;;;;;;;20.23;10.43;;;;;;;11.58;90.96;94760.02;1651107;87;20971;-57
2022/06/02 02:20:45;;;;;;;11.85;9.23;;;;;;;11.56;91.03;94761.05;1651006;87;21045;-58
2022/06/02 02:23:35;;;;;;;12.10;8.43;;;;;;;11.49;90.90;94763.31;1651044;87;20967;-58
2022/06/02 02:26:10;;;;;;;17.92;10.03;;;;;;;11.41;91.14;94761.44;1651065;87;21534;-58
2022/06/02 02:29:09;;;;;;;16.37;10.53;;;;;;;11.36;91.62;94770.27;1650915;87;21026;-58
2022/06/02 02:32:06;;;;;;;18.23;12.05;;;;;;;11.29;91.48;94767.79;1651043;87;21019;-60
2022/06/02 02:34:50;;;;;;;16.82;10.32;;;;;;;11.22;91.74;94765.31;1651045;86;21035;-58
2022/06/02 02:37:31;;;;;;;20.40;9.83;;;;;;;11.19;91.73;94774.45;1619034;88;21625;-57
2022/06/02 02:40:17;;;;;;;14.50;9.45;;;;;;;11.15;91.62;94780.70;1650959;86;21277;-57
2022/06/02 02:42:55;;;;;;;19.32;11.30;;;;;;;11.08;91.73;94782.35;1650987;87;21007;-57
2022/06/02 02:45:41;;;;;;;19.35;11.55;;;;;;;11.03;91.87;94781.56;1650930;86;21032;-57
2022/06/02 02:48:29;;;;;;;26.23;12.50;;;;;;;11.03;91.96;94785.69;1651050;87;21012;-57
2022/06/02 02:51:44;;;;;;;19.12;10.32;;;;;;;11.05;91.71;94781.88;1633743;86;21007;-58
2022/06/02 02:54:25;;;;;;;12.00;8.98;;;;;;;11.09;91.99;94788.02;1613901;89;21252;-57
2022/06/02 02:57:01;;;;;;;18.15;9.50;;;;;;;11.15;91.99;94784.83;1612740;88;20993;-58
2022/06/02 02:59:54;;;;;;;18.02;10.68;;;;;;;11.17;91.99;94789.28;1632095;86;21515;-56
2022/06/02 03:02:56;;;;;;;14.30;9.95;;;;;;;11.22;92.10;94788.72;1621768;88;20979;-58
2022/06/02 03:05:28;;;;;;;13.30;9.13;;;;;;;11.27;91.64;94796.39;1636651;86;20979;-57
2022/06/02 03:08:00;;;;;;;19.62;9.98;;;;;;;11.28;91.36;94799.30;1651795;86;22041;-58
2022/06/02 03:10:38;;;;;;;19.73;10.15;;;;;;;11.28;91.32;94786.13;1651703;86;21479;-58
2022/06/02 03:13:18;;;;;;;15.40;9.95;;;;;;;11.30;91.28;94789.98;1651050;85;21471;-58
2022/06/02 03:15:53;;;;;;;20.00;10.72;;;;;;;11.32;91.03;94786.78;1650197;86;20979;-57
2022/06/02 03:18:42;;;;;;;13.90;9.55;;;;;;;11.33;90.99;94783.56;1651683;87;21018;-57
2022/06/02 03:21:36;;;;;;;22.15;9.68;;;;;;;11.40;90.95;94789.42;1651484;87;21283;-58
2022/06/02 03:24:11;;;;;;;15.75;10.70;;;;;;;11.40;90.92;94792.95;1649989;86;21012;-57
2022/06/02 03:27:15;;;;;;;22.93;9.58;;;;;;;11.43;91.48;94796.18;1651610;87;21066;-57
2022/06/02 03:30:19;;;;;;;18.50;10.53;;;;;;;11.50;91.13;94790.39;1621744;88;20974;-57
2022/06/02 03:33:14;;;;;;;17.17;10.30;;;;;;;11.55;91.32;94799.44;1651518;87;21090;-57
2022/06/02 03:35:59;;;;;;;20.35;9.90;;;;;;;11.74;91.51;94795.58;1630564;87;21187;-57
2022/06/02 03:38:52;;;;;;;17.95;10.05;;;;;;;12.03;91.08;94796.60;1651452;86;21038;-57
2022/06/02 03:41:43;;;;;;;16.65;10.70;;;;;;;12.20;90.33;94805.55;1621612;88;21014;-58
2022/06/02 03:44:31;;;;;;;15.45;10.18;;;;;;;12.34;89.42;94806.36;1651516;87;20987;-56
2022/06/02 03:47:27;;;;;;;19.95;10.23;;;;;;;12.36;88.71;94805.29;1651567;87;21067;-57
2022/06/02 03:50:15;;;;;;;15.88;9.23;;;;;;;12.42;88.46;94808.97;1650653;86;21897;-58
2022/06/02 03:53:15;;;;;;;16.95;10.08;;;;;;;12.47;88.17;94810.37;1651459;87;21420;-58
2022/06/02 03:56:16;;;;;;;19.52;10.48;;;;;;;12.48;87.97;94801.62;1651349;86;21011;-58
2022/06/02 03:59:21;;;;;;;22.87;10.68;;;;;;;12.44;87.68;94798.88;1650854;86;20975;-58
2022/06/02 04:02:10;;;;;;;20.45;9.58;;;;;;;12.46;88.10;94799.93;1651044;86;21038;-57
2022/06/02 04:05:14;;;;;;;20.05;10.25;;;;;;;12.54;87.98;94801.19;1651131;87;21491;-57
2022/06/02 04:08:12;;;;;;;20.45;11.12;;;;;;;12.58;87.92;94800.41;1650893;87;21031;-57
2022/06/02 04:11:14;;;;;;;21.25;11.08;;;;;;;12.62;88.04;94797.67;1650900;87;21067;-58
2022/06/02 04:14:11;;;;;;;11.90;10.13;;;;;;;12.69;87.94;94795.23;1650938;87;20980;-56
2022/06/02 04:16:49;;;;;;;17.77;10.23;;;;;;;12.77;87.93;94788.16;1620766;88;21022;-56
2022/06/02 04:22:58;;;;;;;15.28;9.85;;;;;;;12.94;87.81;94792.19;1651020;87;21016;-58
2022/06/02 04:25:56;;;;;;;14.63;9.83;;;;;;;13.00;87.77;94795.85;1650277;85;21008;-58
2022/06/02 04:29:00;;;;;;;16.93;10.85;;;;;;;13.08;87.63;94790.94;1651182;86;20995;-58
2022/06/02 04:31:58;;;;;;;17.87;11.10;;;;;;;13.11;87.38;94791.39;1650692;86;21533;-60
2022/06/02 04:34:57;;;;;;;25.92;11.57;;;;;;;13.14;87.44;94787.73;1651169;87;21848;-62
2022/06/02 04:37:39;;;;;;;17.35;10.20;;;;;;;13.24;87.98;94789.86;1651006;87;21011;-59
2022/06/02 04:40:38;;;;;;;16.12;10.65;;;;;;;13.45;87.87;94802.72;1651053;87;21090;-59
2022/06/02 04:43:27;;;;;;;17.92;10.50;;;;;;;13.61;87.95;94796.22;1651170;87;21110;-59
2022/06/02 04:46:42;;;;;;;19.15;8.85;;;;;;;13.85;87.54;94790.77;1650940;86;20963;-59
2022/06/02 04:49:35;;;;;;;16.37;9.28;;;;;;;14.06;87.04;94792.52;1651131;87;21274;-59
2022/06/02 04:52:20;;;;;;;10.00;8.73;;;;;;;14.30;86.46;94795.51;1651058;87;21479;-59
2022/06/02 04:54:59;;;;;;;11.03;8.23;;;;;;;14.47;85.34;94782.17;1630358;86;21073;-60
2022/06/02 04:57:53;;;;;;;9.15;7.83;;;;;;;14.57;84.41;94781.49;1651073;87;21085;-60
2022/06/02 05:01:04;;;;;;;13.60;9.10;;;;;;;14.62;83.99;94783.63;1651037;87;21046;-60
2022/06/02 05:04:05;;;;;;;16.62;9.43;;;;;;;14.71;83.56;94781.56;1650852;87;21813;-56
2022/06/02 05:07:02;;;;;;;16.62;8.85;;;;;;;14.77;83.07;94771.36;1630188;87;21036;-55
2022/06/02 05:09:45;;;;;;;12.28;8.53;;;;;;;14.79;82.81;94776.44;1651040;87;20991;-56
2022/06/02 05:12:46;;;;;;;16.63;9.13;;;;;;;14.87;82.81;94774.22;1617607;88;21100;-57
2022/06/02 05:15:40;;;;;;;14.65;9.05;;;;;;;14.93;82.61;94769.54;1650984;86;20995;-58
2022/06/02 05:18:26;;;;;;;23.18;9.28;;;;;;;15.00;82.72;94773.31;1650938;87;21023;-56
2022/06/02 05:21:04;;;;;;;15.13;9.35;;;;;;;15.13;82.61;94768.28;1646091;86;21007;-56
2022/06/02 05:24:21;;;;;;;12.07;7.80;;;;;;;15.26;82.28;94770.17;1650698;86;20975;-57
2022/06/02 05:27:18;;;;;;;15.93;8.50;;;;;;;15.38;81.81;94767.01;1655871;84;21076;-56
2022/06/02 05:30:24;;;;;;;15.58;9.78;;;;;;;15.56;81.50;94760.64;1670849;85;20960;-56
2022/06/02 05:33:36;;;;;;;13.28;8.25;;;;;;;15.76;80.97;94759.33;1670851;86;21267;-57
2022/06/02 05:36:17;;;;;;;10.23;6.75;;;;;;;15.92;80.44;94757.45;1670785;86;20999;-57
2022/06/02 05:39:18;;;;;;;11.55;7.30;;;;;;;16.06;79.69;94758.05;1658543;85;21031;-56
2022/06/02 05:41:51;;;;;;;13.03;9.57;;;;;;;16.19;79.42;94754.95;1659717;85;21056;-57
2022/06/02 05:44:54;;;;;;;14.25;8.68;;;;;;;16.34;79.33;94748.13;1649173;84;21488;-56
2022/06/02 05:47:34;;;;;;;10.88;7.78;;;;;;;16.50;78.66;94742.81;1666479;84;21170;-57
2022/06/02 05:50:49;;;;;;;13.03;9.48;;;;;;;16.65;78.09;94746.30;1621872;85;20978;-58
2022/06/02 05:53:47;;;;;;;16.60;7.78;;;;;;;16.82;77.82;94743.72;1665756;84;21082;-57
2022/06/02 05:56:54;;;;;;;12.18;8.15;;;;;;;16.99;77.04;94737.11;1661980;84;21485;-56
2022/06/02 05:59:46;;;;;;;10.35;8.15;;;;;;;17.11;76.56;94732.44;1672550;84;22053;-64
2022/06/02 06:02:54;;;;;;;15.05;8.60;;;;;;;17.27;75.82;94731.86;1674634;84;21997;-60
2022/06/02 06:05:32;;;;;;;12.13;9.10;;;;;;;17.43;75.34;94731.28;1673010;83;21224;-66
2022/06/02 06:08:18;;;;;;;11.97;7.85;;;;;;;17.57;74.73;94734.55;1672878;84;21058;-60
2022/06/02 06:11:16;;;;;;;15.50;8.55;;;;;;;17.63;74.32;94723.62;1672110;84;21770;-66
2022/06/02 06:13:56;;;;;;;15.08;7.95;;;;;;;17.73;74.42;94725.59;1675126;83;20997;-61
2022/06/02 06:16:47;;;;;;;12.55;8.18;;;;;;;17.87;74.12;94723.31;1674391;84;21203;-62
2022/06/02 06:19:57;;;;;;;14.05;8.88;;;;;;;17.99;73.46;94722.89;1673774;84;21074;-64
2022/06/02 06:22:44;;;;;;;15.55;10.15;;;;;;;18.13;72.80;94718.42;1674086;84;21753;-63
2022/06/02 06:25:34;;;;;;;13.70;9.73;;;;;;;18.22;72.23;94711.41;1676683;84;21679;-58
2022/06/02 06:28:17;;;;;;;20.80;9.20;;;;;;;18.35;72.12;94718.75;1636966;85;21624;-64
2022/06/02 06:31:21;;;;;;;14.98;9.60;;;;;;;18.52;71.49;94706.29;1655683;84;21506;-64
2022/06/02 06:34:02;;;;;;;18.48;8.95;;;;;;;18.67;70.97;94710.41;1679651;84;21093;-65
2022/06/02 06:37:03;;;;;;;18.77;9.20;;;;;;;18.84;70.32;94700.09;1682672;84;21369;-60
2022/06/02 06:39:48;;;;;;;13.13;7.05;;;;;;;18.99;69.96;94695.08;1646995;85;21094;-62
2022/06/02 06:42:41;;;;;;;12.33;8.03;;;;;;;19.16;68.95;94691.73;1650360;85;21606;-61
2022/06/02 06:45:49;;;;;;;15.68;8.60;;;;;;;19.29;68.41;94685.05;1653716;85;22847;-62
2022/06/02 06:48:35;;;;;;;16.57;7.78;;;;;;;19.38;68.30;94675.02;1676235;84;21190;-57
2022/06/02 06:53:54;;;;;;;13.78;7.12;;;;;;;19.73;68.24;94675.30;1769878;78;26294;-62
2022/06/02 06:56:49;;;;;;;12.23;6.80;;;;;;;19.86;68.07;94675.55;1689239;83;21149;-64
2022/06/02 06:59:30;;;;;;;14.25;7.70;;;;;;;20.09;67.24;94678.47;1666785;83;22147;-67
2022/06/02 07:02:20;;;;;;;12.55;7.62;;;;;;;20.32;66.31;94679.95;1705219;82;21029;-64
2022/06/02 07:05:16;;;;;;;9.28;6.90;;;;;;;20.51;66.00;94673.92;1744593;79;21544;-62
2022/06/02 07:08:13;;;;;;;15.28;7.33;;;;;;;20.67;64.98;94668.29;1746545;80;21054;-61
2022/06/02 07:12:50;;;;;;;9.88;6.80;;;;;;;20.86;64.76;94670.66;1715784;81;20960;-66
2022/06/02 07:13:48;;;;;;;11.25;6.67;;;;;;;21.05;63.94;94668.01;1695042;83;21131;-64
2022/06/02 07:16:33;;;;;;;11.97;6.37;;;;;;;21.22;63.22;94662.45;1710856;80;21566;-63
2022/06/02 07:19:20;;;;;;;9.13;5.97;;;;;;;21.38;62.91;94665.02;1736096;80;21062;-60
2022/06/02 07:22:02;;;;;;;7.53;5.83;;;;;;;21.50;62.44;94658.08;1732833;80;21066;-61
2022/06/02 07:24:55;;;;;;;15.72;6.37;;;;;;;21.62;62.03;94665.89;1679291;83;21659;-62
2022/06/02 07:28:10;;;;;;;10.68;6.10;;;;;;;21.77;61.67;94661.31;1673180;84;21347;-61
2022/06/02 07:31:20;;;;;;;8.68;5.95;;;;;;;21.92;60.92;94660.30;1671152;84;21069;-61
2022/06/02 07:34:13;;;;;;;8.95;6.60;;;;;;;22.06;60.11;94651.50;1734360;80;21046;-60
2022/06/02 07:37:09;;;;;;;11.60;7.08;;;;;;;22.20;60.78;94654.56;1733981;80;21044;-60
2022/06/02 07:39:54;;;;;;;6.92;5.97;;;;;;;22.38;60.63;94653.27;1741544;80;21014;-67
2022/06/02 07:42:50;;;;;;;10.93;6.33;;;;;;;22.57;60.42;94655.47;1741843;80;21079;-60
2022/06/02 07:45:32;;;;;;;11.50;6.10;;;;;;;22.70;60.27;94654.16;1743324;80;21143;-63
2022/06/02 07:48:42;;;;;;;9.10;5.45;;;;;;;22.83;59.35;94644.44;1734296;81;21011;-60
2022/06/02 07:51:47;;;;;;;8.73;6.05;;;;;;;22.95;59.59;94643.02;1691203;82;21042;-62
2022/06/02 07:54:33;;;;;;;11.53;6.70;;;;;;;23.12;58.84;94639.38;1710567;82;22115;-59
2022/06/02 07:57:24;;;;;;;9.53;6.25;;;;;;;23.26;58.30;94653.61;1718485;81;21255;-66
2022/06/02 08:00:18;;;;;;;6.87;5.33;;;;;;;23.40;58.36;94643.94;1699467;82;21084;-61
2022/06/02 08:03:08;;;;;;;8.58;6.12;;;;;;;23.59;57.32;94644.67;1707459;82;21046;-61
2022/06/02 08:06:04;;;;;;;10.35;6.80;;;;;;;23.75;57.01;94643.66;1700591;82;21045;-63
2022/06/02 08:08:55;;;;;;;8.38;5.97;;;;;;;23.93;57.56;94638.66;1712267;80;21058;-60
2022/06/02 08:11:41;;;;;;;8.53;6.22;;;;;;;24.09;56.71;94637.62;1696021;81;21893;-61
2022/06/02 08:14:25;;;;;;;15.80;6.75;;;;;;;24.20;56.48;94631.15;1711669;81;20983;-62
2022/06/02 08:17:00;;;;;;;11.25;6.28;;;;;;;24.41;56.27;94635.51;1718836;81;21038;-59
2022/06/02 08:19:36;;;;;;;11.33;6.00;;;;;;;24.64;55.67;94635.22;1716848;80;21516;-60
2022/06/02 08:22:09;;;;;;;6.62;5.50;;;;;;;24.86;55.90;94638.98;1697846;81;21619;-66
2022/06/02 08:25:22;;;;;;;9.28;6.75;;;;;;;25.04;54.69;94644.50;1707097;81;22422;-60
2022/06/02 08:28:08;;;;;;;8.25;5.35;;;;;;;25.21;52.99;94634.30;1697837;82;21003;-60
2022/06/02 08:30:47;;;;;;;9.50;5.60;;;;;;;25.32;52.38;94635.48;1724327;79;21591;-59
2022/06/02 08:33:37;;;;;;;11.70;5.87;;;;;;;25.37;50.95;94640.23;1703215;82;21651;-62
2022/06/02 08:36:15;;;;;;;8.00;6.03;;;;;;;25.34;50.81;94630.80;1724591;80;21068;-60
2022/06/02 08:39:22;;;;;;;10.65;5.97;;;;;;;25.38;51.21;94634.06;1720892;81;21612;-60
2022/06/02 08:42:16;;;;;;;12.58;6.33;;;;;;;25.49;50.23;94635.86;1720543;82;20844;-58
2022/06/02 08:45:03;;;;;;;11.43;5.83;;;;;;;25.67;49.36;94627.22;1694427;83;21014;-61
2022/06/02 08:48:10;;;;;;;8.40;6.00;;;;;;;25.81;49.41;94631.50;1708833;81;21580;-65
2022/06/02 08:51:16;;;;;;;14.47;7.40;;;;;;;25.88;48.71;94632.91;1669921;83;22404;-58
2022/06/02 08:54:12;;;;;;;7.53;5.87;;;;;;;25.89;48.83;94631.60;1686929;83;21060;-62
2022/06/02 08:57:10;;;;;;;9.08;6.08;;;;;;;25.98;50.51;94626.98;1661520;82;21022;-60
2022/06/02 08:59:55;;;;;;;9.85;5.67;;;;;;;26.19;49.18;94624.92;1717429;81;21155;-60
2022/06/02 09:03:03;;;;;;;11.48;5.37;;;;;;;26.42;47.97;94620.84;1723622;81;21147;-63
2022/06/02 09:06:10;;;;;;;7.62;5.28;;;;;;;26.56;47.46;94622.30;1716925;80;21588;-63
2022/06/02 09:09:24;;;;;;;7.60;5.42;;;;;;;26.59;45.88;94620.55;1721216;81;21293;-68
2022/06/02 09:12:20;;;;;;;7.33;4.80;;;;;;;26.57;45.77;94613.28;1707288;81;21210;-63
2022/06/02 09:15:42;;;;;;;9.15;5.45;;;;;;;26.69;45.08;94617.30;1701537;82;21072;-63
2022/06/02 09:18:21;;;;;;;21.15;5.92;;;;;;;26.73;44.76;94619.77;1728523;80;21039;-59
2022/06/02 09:21:10;;;;;;;6.53;5.25;;;;;;;26.71;45.08;94610.44;1699627;82;21162;-61
2022/06/02 09:23:55;;;;;;;12.73;5.45;;;;;;;26.79;44.74;94607.02;1723878;82;22564;-60
2022/06/02 09:26:51;;;;;;;7.12;5.20;;;;;;;26.84;44.14;94610.33;1669655;82;21095;-61
2022/06/02 09:29:42;;;;;;;9.43;4.75;;;;;;;26.76;43.40;94606.72;1688414;82;21106;-63
2022/06/02 09:32:33;;;;;;;9.98;5.37;;;;;;;26.69;43.77;94606.67;1710850;81;21116;-61
2022/06/02 09:35:21;;;;;;;7.92;5.80;;;;;;;26.66;44.18;94600.73;1708819;81;21015;-61
2022/06/02 09:38:14;;;;;;;14.63;5.65;;;;;;;26.69;44.29;94606.67;1710569;80;21150;-65
2022/06/02 09:40:52;;;;;;;8.25;5.70;;;;;;;26.71;44.77;94604.79;1696190;82;21070;-64
2022/06/02 09:43:55;;;;;;;8.85;5.22;;;;;;;26.79;44.42;94612.66;1684124;82;21504;-62
2022/06/02 09:46:59;;;;;;;11.20;5.20;;;;;;;26.84;43.68;94611.00;1734514;80;21020;-68
2022/06/02 09:49:54;;;;;;;15.08;5.70;;;;;;;26.92;43.05;94607.55;1737922;82;21126;-62
2022/06/02 09:52:32;;;;;;;10.30;4.97;;;;;;;27.03;43.38;94599.50;1711232;80;22440;-64
2022/06/02 09:55:32;;;;;;;10.20;5.22;;;;;;;27.08;42.12;94601.43;1716409;80;21092;-66
2022/06/02 09:58:20;;;;;;;13.80;4.75;;;;;;;27.08;41.97;94595.78;1728937;81;21537;-63
2022/06/02 10:01:11;;;;;;;10.70;5.05;;;;;;;27.09;41.95;94598.70;1704061;81;21967;-64
2022/06/02 10:04:09;;;;;;;11.22;5.35;;;;;;;27.19;42.17;94595.45;1717088;81;21066;-60
2022/06/02 10:07:19;;;;;;;6.08;5.47;;;;;;;27.40;41.99;94601.00;1692018;84;21095;-61
2022/06/02 10:10:06;;;;;;;13.75;5.45;;;;;;;27.57;41.31;94599.16;1692550;82;21191;-59
2022/06/02 10:13:15;;;;;;;7.67;4.62;;;;;;;27.69;41.29;94591.07;1673679;82;21137;-61
2022/06/02 10:16:04;;;;;;;6.97;4.35;;;;;;;27.89;41.61;94596.61;1699140;82;21811;-66
2022/06/02 10:18:58;;;;;;;14.55;4.40;;;;;;;28.18;41.03;94598.70;1649698;84;21067;-60
2022/06/02 10:22:01;;;;;;;6.72;3.77;;;;;;;28.40;40.30;94592.30;1714809;81;21216;-60
2022/06/02 10:24:57;;;;;;;5.22;4.22;;;;;;;28.73;38.95;94596.04;1714474;82;21042;-59
2022/06/02 10:27:48;;;;;;;9.00;4.50;;;;;;;29.04;37.72;94591.81;1731692;81;21050;-61
2022/06/02 10:30:48;;;;;;;7.45;4.58;;;;;;;29.34;37.50;94581.78;1717365;81;21430;-58
2022/06/02 10:33:41;;;;;;;7.85;4.08;;;;;;;29.63;37.82;94578.70;1708414;80;21068;-58
2022/06/02 10:36:32;;;;;;;9.03;4.17;;;;;;;30.00;37.24;94582.08;1693582;82;21126;-66
2022/06/02 10:39:20;;;;;;;10.48;3.50;;;;;;;30.06;35.73;94574.09;1723056;82;21308;-61
2022/06/02 10:42:23;;;;;;;7.62;3.55;;;;;;;29.94;36.77;94582.21;1719514;81;21084;-59
2022/06/02 10:45:37;;;;;;;6.50;3.35;;;;;;;29.78;34.40;94580.03;1684566;80;22348;-59
2022/06/02 10:48:28;;;;;;;6.40;3.17;;;;;;;29.44;33.32;94573.50;1693484;81;21565;-60
2022/06/02 10:51:31;;;;;;;11.30;3.65;;;;;;;29.42;33.74;94570.49;1721569;82;21140;-59
2022/06/02 10:54:43;;;;;;;16.05;3.50;;;;;;;29.56;34.45;94569.59;1721763;81;21108;-61
2022/06/02 10:58:07;;;;;;;8.75;3.35;;;;;;;29.76;33.55;94567.09;1674207;83;21025;-63
2022/06/02 11:01:06;;;;;;;18.27;13.15;;;;;;;29.89;33.16;94571.82;1705764;82;21486;-68
2022/06/02 11:04:16;;;;;;;7.33;4.12;;;;;;;30.08;32.15;94570.66;1702181;82;21053;-60
2022/06/02 11:07:12;;;;;;;8.10;3.30;;;;;;;30.34;31.24;94573.66;1697499;83;21992;-63
2022/06/02 11:10:18;;;;;;;10.58;5.10;;;;;;;30.59;29.63;94574.42;1694549;82;21022;-61
2022/06/02 11:13:03;;;;;;;7.97;3.75;;;;;;;30.66;29.89;94563.64;1688949;82;20994;-60
2022/06/02 11:16:03;;;;;;;8.13;3.12;;;;;;;30.44;30.06;94566.02;1699989;83;21152;-62
2022/06/02 11:18:56;;;;;;;9.43;2.85;;;;;;;30.36;31.39;94566.73;1640681;83;21649;-63
2022/06/02 11:21:57;;;;;;;9.85;3.10;;;;;;;30.92;30.09;94563.66;1708620;81;21805;-61
2022/06/02 11:24:46;;;;;;;3.58;2.40;;;;;;;31.56;30.42;94556.17;1733325;80;21207;-59
2022/06/02 11:27:40;;;;;;;12.68;2.95;;;;;;;32.21;28.14;94554.36;1723994;81;21109;-60
2022/06/02 11:30:18;;;;;;;4.22;2.35;;;;;;;32.66;27.69;94549.97;1716952;80;21128;-62
2022/06/02 11:33:35;;;;;;;5.75;2.50;;;;;;;32.91;27.47;94548.39;1716412;81;21065;-60
2022/06/02 11:36:51;;;;;;;5.30;2.70;;;;;;;32.97;27.20;94550.95;1662394;83;22211;-65
2022/06/02 11:39:42;;;;;;;7.37;2.98;;;;;;;32.93;27.96;94549.96;1717764;81;21134;-62
2022/06/02 11:42:57;;;;;;;7.97;2.90;;;;;;;33.24;26.90;94544.43;1706471;81;21058;-62
2022/06/02 11:45:51;;;;;;;4.65;2.30;;;;;;;33.38;26.71;94541.20;1699070;80;21197;-64
2022/06/02 11:48:47;;;;;;;12.80;3.25;;;;;;;33.64;27.08;94546.70;1709783;81;21910;-62
2022/06/02 11:51:54;;;;;;;10.32;3.20;;;;;;;34.17;27.00;94542.72;1711460;82;21146;-65
2022/06/02 11:54:48;;;;;;;4.28;2.77;;;;;;;34.63;24.74;94535.97;1719507;81;21037;-64
2022/06/02 11:57:33;;;;;;;4.58;2.85;;;;;;;34.91;25.62;94540.03;1730634;80;21393;-63
2022/06/02 12:00:44;;;;;;;5.85;2.80;;;;;;;35.44;26.12;94542.18;1731998;82;21120;-63
2022/06/02 12:03:48;;;;;;;5.58;2.83;;;;;;;35.95;25.04;94536.94;1722575;81;21022;-59
2022/06/02 12:06:57;;;;;;;6.22;2.45;;;;;;;35.91;24.48;94544.58;1667621;84;21360;-61
2022/06/02 12:10:16;;;;;;;3.37;2.30;;;;;;;35.23;24.39;94542.95;1710822;81;21046;-57
2022/06/02 12:13:07;;;;;;;5.67;2.98;;;;;;;34.29;25.08;94547.16;1725470;81;21014;-64
2022/06/02 12:16:06;;;;;;;6.42;3.10;;;;;;;33.20;27.00;94549.84;1699279;81;21010;-67
2022/06/02 12:19:14;;;;;;;3.27;2.77;;;;;;;32.34;27.86;94538.95;1702519;82;21244;-58
2022/06/02 12:22:20;;;;;;;14.47;3.50;;;;;;;31.71;28.88;94538.23;1716313;80;21261;-63
2022/06/02 12:25:26;;;;;;;14.03;3.58;;;;;;;31.14;29.56;94542.77;1714314;81;21360;-65
2022/06/02 12:28:32;;;;;;;7.20;4.42;;;;;;;30.65;30.54;94547.20;1723534;81;21499;-66
2022/06/02 12:31:17;;;;;;;3.33;3.02;;;;;;;30.19;31.31;94542.59;1708447;82;21064;-58
2022/06/02 12:34:31;;;;;;;13.13;4.17;;;;;;;29.72;31.38;94544.06;1705740;82;21041;-61
2022/06/02 12:37:28;;;;;;;8.30;3.27;;;;;;;29.31;32.20;94548.23;1718794;81;21202;-64
2022/06/02 12:40:19;;;;;;;8.65;3.70;;;;;;;28.94;32.73;94551.25;1725537;81;21161;-63
2022/06/02 12:43:03;;;;;;;8.58;4.45;;;;;;;28.57;34.19;94560.58;1698665;82;21080;-60
2022/06/02 12:46:04;;;;;;;11.40;3.80;;;;;;;28.19;36.52;94579.66;1695776;82;21095;-62
2022/06/02 12:49:02;;;;;;;11.18;5.00;;;;;;;27.78;38.49;94591.30;1722641;80;21021;-59
2022/06/02 12:51:38;;;;;;;11.57;4.12;;;;;;;27.34;40.39;94603.23;1719431;81;21463;-63
2022/06/02 12:54:43;;;;;;;9.50;2.85;;;;;;;27.05;42.64;94601.78;1725519;81;21655;-66
2022/06/02 12:57:36;;;;;;;6.53;2.87;;;;;;;26.89;42.48;94599.52;1713036;80;21085;-61
2022/06/02 13:00:28;;;;;;;5.50;3.02;;;;;;;26.70;42.07;94606.10;1684890;81;21025;-69
2022/06/02 13:03:16;;;;;;;4.40;2.72;;;;;;;26.42;43.18;94601.09;1716431;79;21113;-63
2022/06/02 13:06:32;;;;;;;5.80;2.80;;;;;;;26.27;42.44;94590.47;1702835;82;21174;-60
2022/06/02 13:09:40;;;;;;;8.03;3.05;;;;;;;26.22;44.95;94594.20;1703642;82;21067;-63
2022/06/02 13:12:40;;;;;;;4.00;2.83;;;;;;;26.22;47.58;94587.14;1696948;82;21062;-66
2022/06/02 13:15:43;;;;;;;5.37;3.50;;;;;;;26.19;48.32;94589.67;1665867;82;21137;-62
2022/06/02 13:18:39;;;;;;;4.72;2.67;;;;;;;26.18;47.32;94586.75;1704263;82;20993;-62
2022/06/02 13:21:14;;;;;;;5.95;3.10;;;;;;;26.12;45.72;94586.12;1707726;81;21513;-61
2022/06/02 13:24:03;;;;;;;6.97;2.80;;;;;;;26.10;44.62;94594.38;1718347;80;21081;-61
2022/06/02 13:27:08;;;;;;;6.90;3.17;;;;;;;26.01;43.35;94594.11;1692092;82;20958;-60
2022/06/02 13:29:50;;;;;;;10.30;3.65;;;;;;;25.86;43.20;94596.80;1716862;81;21114;-61
2022/06/02 13:32:49;;;;;;;4.72;3.27;;;;;;;25.67;42.50;94597.63;1699505;80;21020;-63
2022/06/02 13:35:20;;;;;;;4.70;2.98;;;;;;;;;;1663050;84;21288;-62
2022/06/02 13:38:10;;;;;;;5.78;2.85;;;;;;;25.35;43.39;94612.62;1737585;81;22181;-62